sensor_id;sensor_type;location;lat;lon;timestamp;P1;durP1;ratioP1;P2;durP2;ratioP2
9643;SDS011;4860;50.900;4.720;2023-04-30T00:02:02;0.20;;;0.20;;
9643;SDS011;4860;50.900;4.720;2023-04-30T00:04:28;0.30;;;0.30;;
9643;SDS011;4860;50.900;4.720;2023-04-30T00:06:55;0.20;;;0.20;;
9643;SDS011;4860;50.900;4.720;2023-04-30T00:09:21;0.30;;;0.30;;
9643;SDS011;4860;50.900;4.720;2023-04-30T00:11:47;0.30;;;0.30;;
9643;SDS011;4860;50.900;4.720;2023-04-30T00:14:13;0.30;;;0.30;;
9643;SDS011;4860;50.900;4.720;2023-04-30T00:16:40;0.30;;;0.30;;
9643;SDS011;4860;50.900;4.720;2023-04-30T00:19:06;0.20;;;0.20;;
9643;SDS011;4860;50.900;4.720;2023-04-30T00:21:32;0.30;;;0.30;;
9643;SDS011;4860;50.900;4.720;2023-04-30T00:23:58;0.30;;;0.30;;
9643;SDS011;4860;50.900;4.720;2023-04-30T00:26:25;0.30;;;0.30;;
9643;SDS011;4860;50.900;4.720;2023-04-30T00:28:51;0.30;;;0.30;;
9643;SDS011;4860;50.900;4.720;2023-04-30T00:31:17;0.30;;;0.30;;
9643;SDS011;4860;50.900;4.720;2023-04-30T00:33:43;0.30;;;0.30;;
9643;SDS011;4860;50.900;4.720;2023-04-30T00:36:10;0.30;;;0.30;;
9643;SDS011;4860;50.900;4.720;2023-04-30T00:38:36;0.30;;;0.30;;
9643;SDS011;4860;50.900;4.720;2023-04-30T00:41:02;0.22;;;0.22;;
9643;SDS011;4860;50.900;4.720;2023-04-30T00:43:29;0.30;;;0.30;;
9643;SDS011;4860;50.900;4.720;2023-04-30T00:45:55;0.30;;;0.30;;
9643;SDS011;4860;50.900;4.720;2023-04-30T00:48:23;0.20;;;0.20;;
9643;SDS011;4860;50.900;4.720;2023-04-30T00:50:50;0.30;;;0.30;;
9643;SDS011;4860;50.900;4.720;2023-04-30T00:53:16;0.30;;;0.30;;
9643;SDS011;4860;50.900;4.720;2023-04-30T00:55:42;0.30;;;0.30;;
9643;SDS011;4860;50.900;4.720;2023-04-30T00:58:09;0.30;;;0.30;;
9643;SDS011;4860;50.900;4.720;2023-04-30T01:00:35;0.30;;;0.30;;
9643;SDS011;4860;50.900;4.720;2023-04-30T01:03:01;0.28;;;0.28;;
9643;SDS011;4860;50.900;4.720;2023-04-30T01:05:28;0.30;;;0.30;;
9643;SDS011;4860;50.900;4.720;2023-04-30T01:07:54;0.30;;;0.30;;
9643;SDS011;4860;50.900;4.720;2023-04-30T01:10:22;0.30;;;0.30;;
9643;SDS011;4860;50.900;4.720;2023-04-30T01:12:55;0.30;;;0.30;;
9643;SDS011;4860;50.900;4.720;2023-04-30T01:15:27;0.30;;;0.30;;
9643;SDS011;4860;50.900;4.720;2023-04-30T01:20:28;0.30;;;0.30;;
9643;SDS011;4860;50.900;4.720;2023-04-30T01:25:34;0.30;;;0.30;;
9643;SDS011;4860;50.900;4.720;2023-04-30T01:30:39;0.30;;;0.30;;
9643;SDS011;4860;50.900;4.720;2023-04-30T01:33:09;0.30;;;0.30;;
9643;SDS011;4860;50.900;4.720;2023-04-30T01:41:32;0.30;;;0.30;;
9643;SDS011;4860;50.900;4.720;2023-04-30T01:46:29;0.30;;;0.30;;
9643;SDS011;4860;50.900;4.720;2023-04-30T01:51:38;0.30;;;0.30;;
9643;SDS011;4860;50.900;4.720;2023-04-30T01:54:09;0.30;;;0.30;;
9643;SDS011;4860;50.900;4.720;2023-04-30T01:56:39;0.30;;;0.30;;
9643;SDS011;4860;50.900;4.720;2023-04-30T01:59:07;0.30;;;0.30;;
9643;SDS011;4860;50.900;4.720;2023-04-30T02:01:33;0.30;;;0.30;;
9643;SDS011;4860;50.900;4.720;2023-04-30T02:04:00;0.30;;;0.30;;
9643;SDS011;4860;50.900;4.720;2023-04-30T02:06:27;0.40;;;0.40;;
9643;SDS011;4860;50.900;4.720;2023-04-30T02:08:54;0.30;;;0.30;;
9643;SDS011;4860;50.900;4.720;2023-04-30T02:11:26;0.20;;;0.20;;
9643;SDS011;4860;50.900;4.720;2023-04-30T02:13:53;0.30;;;0.30;;
9643;SDS011;4860;50.900;4.720;2023-04-30T02:16:19;0.30;;;0.30;;
9643;SDS011;4860;50.900;4.720;2023-04-30T02:18:46;0.30;;;0.30;;
9643;SDS011;4860;50.900;4.720;2023-04-30T02:21:15;0.30;;;0.30;;
9643;SDS011;4860;50.900;4.720;2023-04-30T02:23:42;0.40;;;0.40;;
9643;SDS011;4860;50.900;4.720;2023-04-30T02:26:08;0.30;;;0.30;;
9643;SDS011;4860;50.900;4.720;2023-04-30T02:28:34;0.30;;;0.30;;
9643;SDS011;4860;50.900;4.720;2023-04-30T02:31:00;0.30;;;0.30;;
9643;SDS011;4860;50.900;4.720;2023-04-30T02:33:27;0.30;;;0.30;;
9643;SDS011;4860;50.900;4.720;2023-04-30T02:35:53;0.40;;;0.40;;
9643;SDS011;4860;50.900;4.720;2023-04-30T02:38:19;0.30;;;0.30;;
9643;SDS011;4860;50.900;4.720;2023-04-30T02:40:46;0.30;;;0.30;;
9643;SDS011;4860;50.900;4.720;2023-04-30T02:43:12;0.30;;;0.30;;
9643;SDS011;4860;50.900;4.720;2023-04-30T02:45:38;0.20;;;0.20;;
9643;SDS011;4860;50.900;4.720;2023-04-30T02:48:05;0.40;;;0.40;;
9643;SDS011;4860;50.900;4.720;2023-04-30T02:50:31;0.30;;;0.30;;
9643;SDS011;4860;50.900;4.720;2023-04-30T02:52:57;0.30;;;0.30;;
9643;SDS011;4860;50.900;4.720;2023-04-30T02:55:24;0.30;;;0.30;;
9643;SDS011;4860;50.900;4.720;2023-04-30T02:57:50;0.40;;;0.40;;
9643;SDS011;4860;50.900;4.720;2023-04-30T03:00:16;0.30;;;0.30;;
9643;SDS011;4860;50.900;4.720;2023-04-30T03:02:42;0.30;;;0.30;;
9643;SDS011;4860;50.900;4.720;2023-04-30T03:05:09;0.40;;;0.40;;
9643;SDS011;4860;50.900;4.720;2023-04-30T03:07:35;0.30;;;0.30;;
9643;SDS011;4860;50.900;4.720;2023-04-30T03:10:01;0.30;;;0.30;;
9643;SDS011;4860;50.900;4.720;2023-04-30T03:12:27;0.30;;;0.30;;
9643;SDS011;4860;50.900;4.720;2023-04-30T03:14:54;0.33;;;0.33;;
9643;SDS011;4860;50.900;4.720;2023-04-30T03:17:20;0.30;;;0.30;;
9643;SDS011;4860;50.900;4.720;2023-04-30T03:19:47;0.40;;;0.40;;
9643;SDS011;4860;50.900;4.720;2023-04-30T03:22:13;0.30;;;0.30;;
9643;SDS011;4860;50.900;4.720;2023-04-30T03:24:39;0.30;;;0.30;;
9643;SDS011;4860;50.900;4.720;2023-04-30T03:27:06;0.30;;;0.30;;
9643;SDS011;4860;50.900;4.720;2023-04-30T03:29:32;0.40;;;0.40;;
9643;SDS011;4860;50.900;4.720;2023-04-30T03:31:58;0.30;;;0.30;;
9643;SDS011;4860;50.900;4.720;2023-04-30T03:34:24;0.40;;;0.40;;
9643;SDS011;4860;50.900;4.720;2023-04-30T03:36:51;0.30;;;0.30;;
9643;SDS011;4860;50.900;4.720;2023-04-30T03:39:17;0.40;;;0.40;;
9643;SDS011;4860;50.900;4.720;2023-04-30T03:41:43;0.40;;;0.40;;
9643;SDS011;4860;50.900;4.720;2023-04-30T03:44:09;0.30;;;0.30;;
9643;SDS011;4860;50.900;4.720;2023-04-30T03:46:43;0.30;;;0.30;;
9643;SDS011;4860;50.900;4.720;2023-04-30T03:49:09;0.40;;;0.40;;
9643;SDS011;4860;50.900;4.720;2023-04-30T03:51:36;0.40;;;0.40;;
9643;SDS011;4860;50.900;4.720;2023-04-30T03:54:04;0.30;;;0.30;;
9643;SDS011;4860;50.900;4.720;2023-04-30T03:56:31;0.40;;;0.40;;
9643;SDS011;4860;50.900;4.720;2023-04-30T03:58:57;0.30;;;0.30;;
9643;SDS011;4860;50.900;4.720;2023-04-30T04:01:23;0.37;;;0.37;;
9643;SDS011;4860;50.900;4.720;2023-04-30T04:03:50;0.40;;;0.40;;
9643;SDS011;4860;50.900;4.720;2023-04-30T04:06:16;0.30;;;0.30;;
9643;SDS011;4860;50.900;4.720;2023-04-30T04:08:42;0.40;;;0.40;;
9643;SDS011;4860;50.900;4.720;2023-04-30T04:11:09;0.40;;;0.40;;
9643;SDS011;4860;50.900;4.720;2023-04-30T04:13:35;0.40;;;0.40;;
9643;SDS011;4860;50.900;4.720;2023-04-30T04:16:01;0.40;;;0.40;;
9643;SDS011;4860;50.900;4.720;2023-04-30T04:18:28;0.40;;;0.40;;
9643;SDS011;4860;50.900;4.720;2023-04-30T04:20:54;0.40;;;0.40;;
9643;SDS011;4860;50.900;4.720;2023-04-30T04:23:21;0.40;;;0.40;;
9643;SDS011;4860;50.900;4.720;2023-04-30T04:25:47;0.40;;;0.40;;
9643;SDS011;4860;50.900;4.720;2023-04-30T04:28:14;0.40;;;0.40;;
9643;SDS011;4860;50.900;4.720;2023-04-30T04:30:41;0.30;;;0.30;;
9643;SDS011;4860;50.900;4.720;2023-04-30T04:33:07;0.40;;;0.40;;
9643;SDS011;4860;50.900;4.720;2023-04-30T04:35:34;0.30;;;0.30;;
9643;SDS011;4860;50.900;4.720;2023-04-30T04:38:00;0.30;;;0.30;;
9643;SDS011;4860;50.900;4.720;2023-04-30T04:40:27;0.40;;;0.40;;
9643;SDS011;4860;50.900;4.720;2023-04-30T04:42:53;0.37;;;0.37;;
9643;SDS011;4860;50.900;4.720;2023-04-30T04:45:19;0.30;;;0.30;;
9643;SDS011;4860;50.900;4.720;2023-04-30T04:47:46;0.30;;;0.30;;
9643;SDS011;4860;50.900;4.720;2023-04-30T04:50:12;0.40;;;0.40;;
9643;SDS011;4860;50.900;4.720;2023-04-30T04:52:39;0.37;;;0.37;;
9643;SDS011;4860;50.900;4.720;2023-04-30T04:55:05;0.40;;;0.40;;
9643;SDS011;4860;50.900;4.720;2023-04-30T04:57:32;0.30;;;0.30;;
9643;SDS011;4860;50.900;4.720;2023-04-30T04:59:58;0.40;;;0.40;;
9643;SDS011;4860;50.900;4.720;2023-04-30T05:02:24;0.30;;;0.30;;
9643;SDS011;4860;50.900;4.720;2023-04-30T05:04:50;0.40;;;0.40;;
9643;SDS011;4860;50.900;4.720;2023-04-30T05:07:17;0.30;;;0.30;;
9643;SDS011;4860;50.900;4.720;2023-04-30T05:09:43;0.30;;;0.30;;
9643;SDS011;4860;50.900;4.720;2023-04-30T05:12:10;0.30;;;0.30;;
9643;SDS011;4860;50.900;4.720;2023-04-30T05:14:37;0.30;;;0.30;;
9643;SDS011;4860;50.900;4.720;2023-04-30T05:17:03;0.30;;;0.30;;
9643;SDS011;4860;50.900;4.720;2023-04-30T05:19:29;0.30;;;0.30;;
9643;SDS011;4860;50.900;4.720;2023-04-30T05:21:55;0.30;;;0.30;;
9643;SDS011;4860;50.900;4.720;2023-04-30T05:24:21;0.30;;;0.30;;
9643;SDS011;4860;50.900;4.720;2023-04-30T05:26:47;0.30;;;0.30;;
9643;SDS011;4860;50.900;4.720;2023-04-30T05:29:14;0.30;;;0.30;;
9643;SDS011;4860;50.900;4.720;2023-04-30T05:31:40;0.40;;;0.40;;
9643;SDS011;4860;50.900;4.720;2023-04-30T05:34:06;0.30;;;0.30;;
9643;SDS011;4860;50.900;4.720;2023-04-30T05:36:32;0.30;;;0.30;;
9643;SDS011;4860;50.900;4.720;2023-04-30T05:38:58;0.30;;;0.30;;
9643;SDS011;4860;50.900;4.720;2023-04-30T05:41:24;0.40;;;0.40;;
9643;SDS011;4860;50.900;4.720;2023-04-30T05:43:51;0.37;;;0.37;;
9643;SDS011;4860;50.900;4.720;2023-04-30T05:46:17;0.30;;;0.30;;
9643;SDS011;4860;50.900;4.720;2023-04-30T05:48:43;0.30;;;0.30;;
9643;SDS011;4860;50.900;4.720;2023-04-30T05:51:09;0.30;;;0.30;;
9643;SDS011;4860;50.900;4.720;2023-04-30T05:53:35;0.28;;;0.28;;
9643;SDS011;4860;50.900;4.720;2023-04-30T05:56:02;0.30;;;0.30;;
9643;SDS011;4860;50.900;4.720;2023-04-30T05:58:28;0.20;;;0.20;;
9643;SDS011;4860;50.900;4.720;2023-04-30T06:00:54;0.30;;;0.30;;
9643;SDS011;4860;50.900;4.720;2023-04-30T06:03:20;0.20;;;0.20;;
9643;SDS011;4860;50.900;4.720;2023-04-30T06:05:46;0.20;;;0.20;;
9643;SDS011;4860;50.900;4.720;2023-04-30T06:08:12;0.30;;;0.30;;
9643;SDS011;4860;50.900;4.720;2023-04-30T06:10:38;0.30;;;0.30;;
9643;SDS011;4860;50.900;4.720;2023-04-30T06:13:05;0.30;;;0.30;;
9643;SDS011;4860;50.900;4.720;2023-04-30T06:15:31;0.30;;;0.30;;
9643;SDS011;4860;50.900;4.720;2023-04-30T06:17:57;0.20;;;0.20;;
9643;SDS011;4860;50.900;4.720;2023-04-30T06:20:24;0.25;;;0.25;;
9643;SDS011;4860;50.900;4.720;2023-04-30T06:22:51;0.30;;;0.30;;
9643;SDS011;4860;50.900;4.720;2023-04-30T06:25:17;0.20;;;0.20;;
9643;SDS011;4860;50.900;4.720;2023-04-30T06:27:45;0.20;;;0.20;;
9643;SDS011;4860;50.900;4.720;2023-04-30T06:30:11;0.20;;;0.20;;
9643;SDS011;4860;50.900;4.720;2023-04-30T06:32:37;0.22;;;0.22;;
9643;SDS011;4860;50.900;4.720;2023-04-30T06:35:04;0.30;;;0.30;;
9643;SDS011;4860;50.900;4.720;2023-04-30T06:37:30;0.20;;;0.20;;
9643;SDS011;4860;50.900;4.720;2023-04-30T06:40:01;0.20;;;0.20;;
9643;SDS011;4860;50.900;4.720;2023-04-30T06:42:28;0.20;;;0.20;;
9643;SDS011;4860;50.900;4.720;2023-04-30T06:44:59;0.20;;;0.20;;
9643;SDS011;4860;50.900;4.720;2023-04-30T06:47:26;0.30;;;0.30;;
9643;SDS011;4860;50.900;4.720;2023-04-30T06:49:52;0.20;;;0.20;;
9643;SDS011;4860;50.900;4.720;2023-04-30T06:52:18;0.30;;;0.30;;
9643;SDS011;4860;50.900;4.720;2023-04-30T06:54:44;0.20;;;0.20;;
9643;SDS011;4860;50.900;4.720;2023-04-30T06:57:11;0.22;;;0.22;;
9643;SDS011;4860;50.900;4.720;2023-04-30T06:59:37;0.17;;;0.17;;
9643;SDS011;4860;50.900;4.720;2023-04-30T07:02:03;0.20;;;0.20;;
9643;SDS011;4860;50.900;4.720;2023-04-30T07:04:29;0.20;;;0.20;;
9643;SDS011;4860;50.900;4.720;2023-04-30T07:06:56;0.20;;;0.20;;
9643;SDS011;4860;50.900;4.720;2023-04-30T07:09:22;0.10;;;0.10;;
9643;SDS011;4860;50.900;4.720;2023-04-30T07:11:48;0.20;;;0.20;;
9643;SDS011;4860;50.900;4.720;2023-04-30T07:14:15;0.15;;;0.15;;
9643;SDS011;4860;50.900;4.720;2023-04-30T07:16:41;0.20;;;0.20;;
9643;SDS011;4860;50.900;4.720;2023-04-30T07:19:07;0.20;;;0.20;;
9643;SDS011;4860;50.900;4.720;2023-04-30T07:21:33;0.20;;;0.20;;
9643;SDS011;4860;50.900;4.720;2023-04-30T07:23:59;0.20;;;0.20;;
9643;SDS011;4860;50.900;4.720;2023-04-30T07:26:26;0.10;;;0.10;;
9643;SDS011;4860;50.900;4.720;2023-04-30T07:28:52;0.10;;;0.10;;
9643;SDS011;4860;50.900;4.720;2023-04-30T07:31:18;0.15;;;0.15;;
9643;SDS011;4860;50.900;4.720;2023-04-30T07:33:45;0.10;;;0.10;;
9643;SDS011;4860;50.900;4.720;2023-04-30T07:36:11;0.10;;;0.10;;
9643;SDS011;4860;50.900;4.720;2023-04-30T07:38:37;0.10;;;0.10;;
9643;SDS011;4860;50.900;4.720;2023-04-30T07:41:03;0.10;;;0.10;;
9643;SDS011;4860;50.900;4.720;2023-04-30T07:43:30;0.10;;;0.10;;
9643;SDS011;4860;50.900;4.720;2023-04-30T07:45:56;0.10;;;0.10;;
9643;SDS011;4860;50.900;4.720;2023-04-30T07:48:23;0.20;;;0.20;;
9643;SDS011;4860;50.900;4.720;2023-04-30T07:50:49;0.10;;;0.10;;
9643;SDS011;4860;50.900;4.720;2023-04-30T07:53:15;0.10;;;0.10;;
9643;SDS011;4860;50.900;4.720;2023-04-30T07:55:42;0.15;;;0.15;;
9643;SDS011;4860;50.900;4.720;2023-04-30T07:58:08;0.20;;;0.20;;
9643;SDS011;4860;50.900;4.720;2023-04-30T08:00:34;0.10;;;0.10;;
9643;SDS011;4860;50.900;4.720;2023-04-30T08:03:00;0.10;;;0.10;;
9643;SDS011;4860;50.900;4.720;2023-04-30T08:05:26;0.10;;;0.10;;
9643;SDS011;4860;50.900;4.720;2023-04-30T08:07:53;0.10;;;0.10;;
9643;SDS011;4860;50.900;4.720;2023-04-30T08:10:19;0.10;;;0.10;;
9643;SDS011;4860;50.900;4.720;2023-04-30T08:12:45;0.10;;;0.10;;
9643;SDS011;4860;50.900;4.720;2023-04-30T08:15:11;0.10;;;0.10;;
9643;SDS011;4860;50.900;4.720;2023-04-30T08:17:37;0.10;;;0.10;;
9643;SDS011;4860;50.900;4.720;2023-04-30T08:20:04;0.08;;;0.08;;
9643;SDS011;4860;50.900;4.720;2023-04-30T08:22:30;0.10;;;0.10;;
9643;SDS011;4860;50.900;4.720;2023-04-30T08:24:57;0.10;;;0.10;;
9643;SDS011;4860;50.900;4.720;2023-04-30T08:27:25;0.10;;;0.10;;
9643;SDS011;4860;50.900;4.720;2023-04-30T08:29:52;0.10;;;0.10;;
9643;SDS011;4860;50.900;4.720;2023-04-30T08:32:18;0.10;;;0.10;;
9643;SDS011;4860;50.900;4.720;2023-04-30T08:34:44;0.10;;;0.10;;
9643;SDS011;4860;50.900;4.720;2023-04-30T08:37:11;0.10;;;0.10;;
9643;SDS011;4860;50.900;4.720;2023-04-30T08:39:37;0.10;;;0.10;;
9643;SDS011;4860;50.900;4.720;2023-04-30T08:42:04;0.10;;;0.10;;
9643;SDS011;4860;50.900;4.720;2023-04-30T08:44:33;0.10;;;0.10;;
9643;SDS011;4860;50.900;4.720;2023-04-30T08:47:00;0.10;;;0.10;;
9643;SDS011;4860;50.900;4.720;2023-04-30T08:49:26;0.10;;;0.10;;
9643;SDS011;4860;50.900;4.720;2023-04-30T08:51:56;0.10;;;0.10;;
9643;SDS011;4860;50.900;4.720;2023-04-30T08:54:24;0.10;;;0.10;;
9643;SDS011;4860;50.900;4.720;2023-04-30T08:56:51;0.10;;;0.10;;
9643;SDS011;4860;50.900;4.720;2023-04-30T08:59:17;0.10;;;0.10;;
9643;SDS011;4860;50.900;4.720;2023-04-30T09:01:43;0.10;;;0.10;;
9643;SDS011;4860;50.900;4.720;2023-04-30T09:04:09;0.10;;;0.10;;
9643;SDS011;4860;50.900;4.720;2023-04-30T09:06:36;0.10;;;0.10;;
9643;SDS011;4860;50.900;4.720;2023-04-30T09:09:10;0.10;;;0.10;;
9643;SDS011;4860;50.900;4.720;2023-04-30T09:11:36;0.10;;;0.10;;
9643;SDS011;4860;50.900;4.720;2023-04-30T09:14:03;0.10;;;0.10;;
9643;SDS011;4860;50.900;4.720;2023-04-30T09:16:30;0.10;;;0.10;;
9643;SDS011;4860;50.900;4.720;2023-04-30T09:19:09;0.10;;;0.10;;
9643;SDS011;4860;50.900;4.720;2023-04-30T09:21:35;0.10;;;0.10;;
9643;SDS011;4860;50.900;4.720;2023-04-30T09:24:03;0.08;;;0.08;;
9643;SDS011;4860;50.900;4.720;2023-04-30T09:26:30;0.10;;;0.10;;
9643;SDS011;4860;50.900;4.720;2023-04-30T09:28:57;0.10;;;0.10;;
9643;SDS011;4860;50.900;4.720;2023-04-30T09:31:25;0.10;;;0.10;;
9643;SDS011;4860;50.900;4.720;2023-04-30T09:33:51;0.10;;;0.10;;
9643;SDS011;4860;50.900;4.720;2023-04-30T09:36:18;0.10;;;0.10;;
9643;SDS011;4860;50.900;4.720;2023-04-30T09:38:45;0.10;;;0.10;;
9643;SDS011;4860;50.900;4.720;2023-04-30T09:41:24;0.10;;;0.10;;
9643;SDS011;4860;50.900;4.720;2023-04-30T09:43:54;0.10;;;0.10;;
9643;SDS011;4860;50.900;4.720;2023-04-30T09:46:21;0.10;;;0.10;;
9643;SDS011;4860;50.900;4.720;2023-04-30T09:48:55;0.10;;;0.10;;
9643;SDS011;4860;50.900;4.720;2023-04-30T09:51:21;0.10;;;0.10;;
9643;SDS011;4860;50.900;4.720;2023-04-30T09:53:48;0.10;;;0.10;;
9643;SDS011;4860;50.900;4.720;2023-04-30T09:56:20;0.10;;;0.10;;
9643;SDS011;4860;50.900;4.720;2023-04-30T09:58:49;0.10;;;0.10;;
9643;SDS011;4860;50.900;4.720;2023-04-30T10:01:17;0.08;;;0.08;;
9643;SDS011;4860;50.900;4.720;2023-04-30T10:03:43;0.10;;;0.10;;
9643;SDS011;4860;50.900;4.720;2023-04-30T10:06:12;0.10;;;0.10;;
9643;SDS011;4860;50.900;4.720;2023-04-30T10:08:39;0.10;;;0.10;;
9643;SDS011;4860;50.900;4.720;2023-04-30T10:11:06;0.10;;;0.10;;
9643;SDS011;4860;50.900;4.720;2023-04-30T10:13:44;0.10;;;0.10;;
9643;SDS011;4860;50.900;4.720;2023-04-30T10:16:56;0.10;;;0.10;;
9643;SDS011;4860;50.900;4.720;2023-04-30T10:19:35;0.10;;;0.10;;
9643;SDS011;4860;50.900;4.720;2023-04-30T10:21:54;0.10;;;0.10;;
9643;SDS011;4860;50.900;4.720;2023-04-30T10:24:20;0.08;;;0.08;;
9643;SDS011;4860;50.900;4.720;2023-04-30T10:26:47;0.10;;;0.10;;
9643;SDS011;4860;50.900;4.720;2023-04-30T10:29:14;0.10;;;0.10;;
9643;SDS011;4860;50.900;4.720;2023-04-30T10:31:40;0.00;;;0.00;;
9643;SDS011;4860;50.900;4.720;2023-04-30T10:36:56;0.10;;;0.10;;
9643;SDS011;4860;50.900;4.720;2023-04-30T10:39:24;0.00;;;0.00;;
9643;SDS011;4860;50.900;4.720;2023-04-30T10:42:04;0.10;;;0.10;;
9643;SDS011;4860;50.900;4.720;2023-04-30T10:44:31;0.10;;;0.10;;
9643;SDS011;4860;50.900;4.720;2023-04-30T10:46:58;0.05;;;0.05;;
9643;SDS011;4860;50.900;4.720;2023-04-30T10:49:25;0.10;;;0.10;;
9643;SDS011;4860;50.900;4.720;2023-04-30T10:51:52;0.10;;;0.10;;
9643;SDS011;4860;50.900;4.720;2023-04-30T10:54:26;0.10;;;0.10;;
9643;SDS011;4860;50.900;4.720;2023-04-30T10:56:53;0.00;;;0.00;;
9643;SDS011;4860;50.900;4.720;2023-04-30T10:59:24;0.10;;;0.10;;
9643;SDS011;4860;50.900;4.720;2023-04-30T11:01:54;0.00;;;0.00;;
9643;SDS011;4860;50.900;4.720;2023-04-30T11:04:20;0.10;;;0.10;;
9643;SDS011;4860;50.900;4.720;2023-04-30T11:09:16;0.10;;;0.10;;
9643;SDS011;4860;50.900;4.720;2023-04-30T11:11:45;0.00;;;0.00;;
9643;SDS011;4860;50.900;4.720;2023-04-30T11:14:19;0.10;;;0.10;;
9643;SDS011;4860;50.900;4.720;2023-04-30T11:16:48;0.10;;;0.10;;
9643;SDS011;4860;50.900;4.720;2023-04-30T11:19:15;0.00;;;0.00;;
9643;SDS011;4860;50.900;4.720;2023-04-30T11:22:27;0.10;;;0.10;;
9643;SDS011;4860;50.900;4.720;2023-04-30T11:27:12;0.00;;;0.00;;
9643;SDS011;4860;50.900;4.720;2023-04-30T11:29:38;0.08;;;0.08;;
9643;SDS011;4860;50.900;4.720;2023-04-30T11:32:05;0.03;;;0.03;;
9643;SDS011;4860;50.900;4.720;2023-04-30T11:34:32;0.10;;;0.10;;
9643;SDS011;4860;50.900;4.720;2023-04-30T11:37:00;0.10;;;0.10;;
9643;SDS011;4860;50.900;4.720;2023-04-30T11:39:28;0.08;;;0.08;;
9643;SDS011;4860;50.900;4.720;2023-04-30T11:41:54;0.00;;;0.00;;
9643;SDS011;4860;50.900;4.720;2023-04-30T11:44:24;0.00;;;0.00;;
9643;SDS011;4860;50.900;4.720;2023-04-30T11:46:51;0.00;;;0.00;;
9643;SDS011;4860;50.900;4.720;2023-04-30T11:49:19;0.03;;;0.03;;
9643;SDS011;4860;50.900;4.720;2023-04-30T11:51:49;0.10;;;0.10;;
9643;SDS011;4860;50.900;4.720;2023-04-30T11:54:15;0.00;;;0.00;;
9643;SDS011;4860;50.900;4.720;2023-04-30T11:56:46;0.00;;;0.00;;
9643;SDS011;4860;50.900;4.720;2023-04-30T11:59:16;0.00;;;0.00;;
9643;SDS011;4860;50.900;4.720;2023-04-30T12:01:42;0.00;;;0.00;;
9643;SDS011;4860;50.900;4.720;2023-04-30T12:04:08;0.10;;;0.10;;
9643;SDS011;4860;50.900;4.720;2023-04-30T12:06:35;0.00;;;0.00;;
9643;SDS011;4860;50.900;4.720;2023-04-30T12:09:02;0.00;;;0.00;;
9643;SDS011;4860;50.900;4.720;2023-04-30T12:11:33;0.00;;;0.00;;
9643;SDS011;4860;50.900;4.720;2023-04-30T12:14:00;0.10;;;0.10;;
9643;SDS011;4860;50.900;4.720;2023-04-30T12:16:44;0.10;;;0.10;;
9643;SDS011;4860;50.900;4.720;2023-04-30T12:19:13;0.10;;;0.10;;
9643;SDS011;4860;50.900;4.720;2023-04-30T12:21:41;0.10;;;0.10;;
9643;SDS011;4860;50.900;4.720;2023-04-30T12:24:12;0.00;;;0.00;;
9643;SDS011;4860;50.900;4.720;2023-04-30T12:26:39;0.10;;;0.10;;
9643;SDS011;4860;50.900;4.720;2023-04-30T12:29:09;0.03;;;0.03;;
9643;SDS011;4860;50.900;4.720;2023-04-30T12:31:36;0.10;;;0.10;;
9643;SDS011;4860;50.900;4.720;2023-04-30T12:34:07;0.10;;;0.10;;
9643;SDS011;4860;50.900;4.720;2023-04-30T12:36:34;0.10;;;0.10;;
9643;SDS011;4860;50.900;4.720;2023-04-30T12:39:06;0.10;;;0.10;;
9643;SDS011;4860;50.900;4.720;2023-04-30T12:41:36;0.10;;;0.10;;
9643;SDS011;4860;50.900;4.720;2023-04-30T12:44:15;0.10;;;0.10;;
9643;SDS011;4860;50.900;4.720;2023-04-30T12:46:41;0.10;;;0.10;;
9643;SDS011;4860;50.900;4.720;2023-04-30T12:49:07;0.10;;;0.10;;
9643;SDS011;4860;50.900;4.720;2023-04-30T12:51:35;0.10;;;0.10;;
9643;SDS011;4860;50.900;4.720;2023-04-30T12:54:04;0.10;;;0.10;;
9643;SDS011;4860;50.900;4.720;2023-04-30T12:56:30;0.00;;;0.00;;
9643;SDS011;4860;50.900;4.720;2023-04-30T12:58:56;0.00;;;0.00;;
9643;SDS011;4860;50.900;4.720;2023-04-30T13:01:22;0.00;;;0.00;;
9643;SDS011;4860;50.900;4.720;2023-04-30T13:03:50;0.10;;;0.10;;
9643;SDS011;4860;50.900;4.720;2023-04-30T13:06:16;0.10;;;0.10;;
9643;SDS011;4860;50.900;4.720;2023-04-30T13:08:43;0.10;;;0.10;;
9643;SDS011;4860;50.900;4.720;2023-04-30T13:11:09;0.10;;;0.10;;
9643;SDS011;4860;50.900;4.720;2023-04-30T13:13:35;0.00;;;0.00;;
9643;SDS011;4860;50.900;4.720;2023-04-30T13:16:01;0.10;;;0.10;;
9643;SDS011;4860;50.900;4.720;2023-04-30T13:18:31;0.03;;;0.03;;
9643;SDS011;4860;50.900;4.720;2023-04-30T13:20:57;0.00;;;0.00;;
9643;SDS011;4860;50.900;4.720;2023-04-30T13:23:23;0.10;;;0.10;;
9643;SDS011;4860;50.900;4.720;2023-04-30T13:25:49;0.00;;;0.00;;
9643;SDS011;4860;50.900;4.720;2023-04-30T13:28:15;0.10;;;0.10;;
9643;SDS011;4860;50.900;4.720;2023-04-30T13:30:41;0.10;;;0.10;;
9643;SDS011;4860;50.900;4.720;2023-04-30T13:33:08;0.10;;;0.10;;
9643;SDS011;4860;50.900;4.720;2023-04-30T13:35:34;0.10;;;0.10;;
9643;SDS011;4860;50.900;4.720;2023-04-30T13:38:00;0.10;;;0.10;;
9643;SDS011;4860;50.900;4.720;2023-04-30T13:40:26;0.05;;;0.05;;
9643;SDS011;4860;50.900;4.720;2023-04-30T13:42:52;0.10;;;0.10;;
9643;SDS011;4860;50.900;4.720;2023-04-30T13:45:19;0.08;;;0.08;;
9643;SDS011;4860;50.900;4.720;2023-04-30T13:47:45;0.00;;;0.00;;
9643;SDS011;4860;50.900;4.720;2023-04-30T13:50:11;0.00;;;0.00;;
9643;SDS011;4860;50.900;4.720;2023-04-30T13:52:37;0.00;;;0.00;;
9643;SDS011;4860;50.900;4.720;2023-04-30T13:55:04;0.10;;;0.10;;
9643;SDS011;4860;50.900;4.720;2023-04-30T13:57:30;0.05;;;0.05;;
9643;SDS011;4860;50.900;4.720;2023-04-30T13:59:59;0.00;;;0.00;;
9643;SDS011;4860;50.900;4.720;2023-04-30T14:02:26;0.08;;;0.08;;
9643;SDS011;4860;50.900;4.720;2023-04-30T14:04:52;0.00;;;0.00;;
9643;SDS011;4860;50.900;4.720;2023-04-30T14:07:19;0.10;;;0.10;;
9643;SDS011;4860;50.900;4.720;2023-04-30T14:09:45;0.10;;;0.10;;
9643;SDS011;4860;50.900;4.720;2023-04-30T14:12:11;0.00;;;0.00;;
9643;SDS011;4860;50.900;4.720;2023-04-30T14:14:38;0.10;;;0.10;;
9643;SDS011;4860;50.900;4.720;2023-04-30T14:17:04;0.03;;;0.03;;
9643;SDS011;4860;50.900;4.720;2023-04-30T14:19:30;0.00;;;0.00;;
9643;SDS011;4860;50.900;4.720;2023-04-30T14:21:56;0.00;;;0.00;;
9643;SDS011;4860;50.900;4.720;2023-04-30T14:24:22;0.10;;;0.10;;
9643;SDS011;4860;50.900;4.720;2023-04-30T14:26:49;0.03;;;0.03;;
9643;SDS011;4860;50.900;4.720;2023-04-30T14:29:15;0.00;;;0.00;;
9643;SDS011;4860;50.900;4.720;2023-04-30T14:31:43;0.10;;;0.10;;
9643;SDS011;4860;50.900;4.720;2023-04-30T14:34:09;0.05;;;0.05;;
9643;SDS011;4860;50.900;4.720;2023-04-30T14:36:36;0.10;;;0.10;;
9643;SDS011;4860;50.900;4.720;2023-04-30T14:39:02;0.00;;;0.00;;
9643;SDS011;4860;50.900;4.720;2023-04-30T14:41:35;0.00;;;0.00;;
9643;SDS011;4860;50.900;4.720;2023-04-30T14:44:02;0.00;;;0.00;;
9643;SDS011;4860;50.900;4.720;2023-04-30T14:46:28;0.00;;;0.00;;
9643;SDS011;4860;50.900;4.720;2023-04-30T14:48:55;0.00;;;0.00;;
9643;SDS011;4860;50.900;4.720;2023-04-30T14:51:21;0.00;;;0.00;;
9643;SDS011;4860;50.900;4.720;2023-04-30T14:53:47;0.00;;;0.00;;
9643;SDS011;4860;50.900;4.720;2023-04-30T14:56:14;0.00;;;0.00;;
9643;SDS011;4860;50.900;4.720;2023-04-30T14:58:40;0.00;;;0.00;;
9643;SDS011;4860;50.900;4.720;2023-04-30T15:01:06;0.00;;;0.00;;
9643;SDS011;4860;50.900;4.720;2023-04-30T15:03:32;0.00;;;0.00;;
9643;SDS011;4860;50.900;4.720;2023-04-30T15:05:58;0.00;;;0.00;;
9643;SDS011;4860;50.900;4.720;2023-04-30T15:08:24;0.00;;;0.00;;
9643;SDS011;4860;50.900;4.720;2023-04-30T15:10:50;0.00;;;0.00;;
9643;SDS011;4860;50.900;4.720;2023-04-30T15:13:17;0.00;;;0.00;;
9643;SDS011;4860;50.900;4.720;2023-04-30T15:15:43;0.00;;;0.00;;
9643;SDS011;4860;50.900;4.720;2023-04-30T15:18:11;0.00;;;0.00;;
9643;SDS011;4860;50.900;4.720;2023-04-30T15:20:38;0.00;;;0.00;;
9643;SDS011;4860;50.900;4.720;2023-04-30T15:23:04;0.00;;;0.00;;
9643;SDS011;4860;50.900;4.720;2023-04-30T15:25:30;0.00;;;0.00;;
9643;SDS011;4860;50.900;4.720;2023-04-30T15:27:57;0.00;;;0.00;;
9643;SDS011;4860;50.900;4.720;2023-04-30T15:30:23;0.00;;;0.00;;
9643;SDS011;4860;50.900;4.720;2023-04-30T15:32:49;0.00;;;0.00;;
9643;SDS011;4860;50.900;4.720;2023-04-30T15:35:16;0.00;;;0.00;;
9643;SDS011;4860;50.900;4.720;2023-04-30T15:37:42;0.00;;;0.00;;
9643;SDS011;4860;50.900;4.720;2023-04-30T15:40:08;0.00;;;0.00;;
9643;SDS011;4860;50.900;4.720;2023-04-30T15:42:39;0.00;;;0.00;;